Sunday, July 22, 2018, 12:43 PM GMT
Back to Local

CWNH, Riviere Du Loup, Que.

Location: , , Canada Lat: 47.8
Local Time: 12:43 PM GMT (12:43 GMT) Lon: -69.55
Time Zone: GMT Elev: 485 ft

Show me the last for .
Show Coded

Time T Td Feel RH Dir Speed Gust Alt SLP Vis Weather Sky Remarks
2018-07-22 12:00 67 56 - 69 360° 2 - - 30.19 0 None
2018-07-22 11:00 65 55 - 68 - Calm - - 30.19 0 None
2018-07-22 10:00 59 53 - 81 140° 1 - - 30.17 0 None
2018-07-22 09:00 63 49 - 60 200° 3 - - 30.15 0 None
2018-07-22 08:00 64 51 - 62 200° 3 - - 30.14 0 None
2018-07-22 07:00 64 53 - 65 200° 3 - - 30.15 0 None
2018-07-22 06:00 64 55 - 73 190° 3 - - 30.14 0 None
2018-07-22 05:00 63 56 - 79 190° 2 - - 30.13 0 None
2018-07-22 04:00 62 56 - 82 120° 1 - - 30.12 0 None
2018-07-22 03:00 63 56 - 78 120° 1 - - 30.11 0 None
2018-07-22 02:00 63 56 - 77 310° 1 - - 30.11 0 None
2018-07-22 01:00 71 59 76 66 - Calm - - 30.10 0 None
2018-07-22 00:00 69 58 - 67 10° 3 - - 30.09 0 None
2018-07-21 23:00 75 59 78 56 360° 7 - - 30.08 0 None
2018-07-21 22:00 81 59 82 47 340° 6 - - 30.09 0 None
2018-07-21 21:00 81 57 81 44 350° 8 - - 30.09 0 None
2018-07-21 20:00 82 58 83 42 350° 8 - - 30.10 0 None
2018-07-21 19:00 82 56 82 41 340° 7 - - 30.10 0 None
2018-07-21 18:00 82 56 82 40 300° 6 - - 30.12 0 None
2018-07-21 17:00 80 56 80 43 290° 6 - - 30.12 0 None
2018-07-21 16:00 79 57 80 46 270° 6 - - 30.13 0 None
2018-07-21 15:00 81 59 82 46 280° 5 - - 30.14 0 None
2018-07-21 14:00 78 59 79 51 270° 3 - - 30.15 0 None
2018-07-21 13:00 80 56 80 45 200° 5 - - 30.15 0 None

Support USWX by starting your Amazon purchase here.